sensor_id;sensor_type;location;lat;lon;timestamp;P1;durP1;ratioP1;P2;durP2;ratioP2
30062;SDS011;16889;67.864;24.990;2023-04-26T00:03:39;2.83;;;1.00;;
30062;SDS011;16889;67.864;24.990;2023-04-26T00:08:25;4.32;;;0.88;;
30062;SDS011;16889;67.864;24.990;2023-04-26T00:13:11;1.80;;;1.00;;
30062;SDS011;16889;67.864;24.990;2023-04-26T00:17:57;2.55;;;0.90;;
30062;SDS011;16889;67.864;24.990;2023-04-26T00:22:43;1.58;;;0.93;;
30062;SDS011;16889;67.864;24.990;2023-04-26T00:27:29;2.85;;;1.10;;
30062;SDS011;16889;67.864;24.990;2023-04-26T00:32:15;3.85;;;0.90;;
30062;SDS011;16889;67.864;24.990;2023-04-26T00:37:01;3.40;;;1.00;;
30062;SDS011;16889;67.864;24.990;2023-04-26T00:41:48;2.90;;;1.30;;
30062;SDS011;16889;67.864;24.990;2023-04-26T00:46:35;1.92;;;1.35;;
30062;SDS011;16889;67.864;24.990;2023-04-26T00:51:21;2.60;;;1.50;;
30062;SDS011;16889;67.864;24.990;2023-04-26T00:56:10;2.90;;;1.45;;
30062;SDS011;16889;67.864;24.990;2023-04-26T01:00:57;5.68;;;1.70;;
30062;SDS011;16889;67.864;24.990;2023-04-26T01:05:43;4.18;;;1.90;;
30062;SDS011;16889;67.864;24.990;2023-04-26T01:10:30;5.93;;;1.90;;
30062;SDS011;16889;67.864;24.990;2023-04-26T01:15:18;7.82;;;1.95;;
30062;SDS011;16889;67.864;24.990;2023-04-26T01:20:04;4.45;;;2.20;;
30062;SDS011;16889;67.864;24.990;2023-04-26T01:24:54;4.15;;;1.90;;
30062;SDS011;16889;67.864;24.990;2023-04-26T01:29:42;5.13;;;2.08;;
30062;SDS011;16889;67.864;24.990;2023-04-26T01:34:28;4.30;;;1.73;;
30062;SDS011;16889;67.864;24.990;2023-04-26T01:39:14;5.75;;;2.15;;
30062;SDS011;16889;67.864;24.990;2023-04-26T01:44:02;5.05;;;2.10;;
30062;SDS011;16889;67.864;24.990;2023-04-26T01:48:51;5.70;;;2.28;;
30062;SDS011;16889;67.864;24.990;2023-04-26T01:53:37;4.30;;;2.10;;
30062;SDS011;16889;67.864;24.990;2023-04-26T01:58:23;2.92;;;2.20;;
30062;SDS011;16889;67.864;24.990;2023-04-26T02:03:12;3.65;;;1.95;;
30062;SDS011;16889;67.864;24.990;2023-04-26T02:07:58;7.97;;;2.10;;
30062;SDS011;16889;67.864;24.990;2023-04-26T02:12:44;4.35;;;1.85;;
30062;SDS011;16889;67.864;24.990;2023-04-26T02:17:30;4.93;;;2.22;;
30062;SDS011;16889;67.864;24.990;2023-04-26T02:22:17;6.97;;;1.92;;
30062;SDS011;16889;67.864;24.990;2023-04-26T02:27:03;5.07;;;2.20;;
30062;SDS011;16889;67.864;24.990;2023-04-26T02:31:49;6.18;;;2.03;;
30062;SDS011;16889;67.864;24.990;2023-04-26T02:36:35;3.03;;;2.17;;
30062;SDS011;16889;67.864;24.990;2023-04-26T02:41:21;5.88;;;2.25;;
30062;SDS011;16889;67.864;24.990;2023-04-26T02:46:07;4.13;;;2.15;;
30062;SDS011;16889;67.864;24.990;2023-04-26T02:50:53;3.90;;;1.92;;
30062;SDS011;16889;67.864;24.990;2023-04-26T02:55:42;3.22;;;1.77;;
30062;SDS011;16889;67.864;24.990;2023-04-26T03:00:31;4.90;;;1.80;;
30062;SDS011;16889;67.864;24.990;2023-04-26T03:05:18;6.38;;;2.08;;
30062;SDS011;16889;67.864;24.990;2023-04-26T03:10:04;7.15;;;2.22;;
30062;SDS011;16889;67.864;24.990;2023-04-26T03:14:59;4.82;;;2.05;;
30062;SDS011;16889;67.864;24.990;2023-04-26T03:19:47;3.97;;;1.80;;
30062;SDS011;16889;67.864;24.990;2023-04-26T03:24:36;4.43;;;2.15;;
30062;SDS011;16889;67.864;24.990;2023-04-26T03:29:22;3.70;;;1.95;;
30062;SDS011;16889;67.864;24.990;2023-04-26T03:34:08;4.63;;;2.10;;
30062;SDS011;16889;67.864;24.990;2023-04-26T03:38:57;4.60;;;2.00;;
30062;SDS011;16889;67.864;24.990;2023-04-26T03:43:43;5.78;;;2.10;;
30062;SDS011;16889;67.864;24.990;2023-04-26T03:48:29;5.70;;;2.35;;
30062;SDS011;16889;67.864;24.990;2023-04-26T03:53:15;7.72;;;2.60;;
30062;SDS011;16889;67.864;24.990;2023-04-26T03:58:01;5.82;;;2.13;;
30062;SDS011;16889;67.864;24.990;2023-04-26T04:02:51;3.90;;;2.13;;
30062;SDS011;16889;67.864;24.990;2023-04-26T04:07:37;5.47;;;2.60;;
30062;SDS011;16889;67.864;24.990;2023-04-26T04:12:23;6.43;;;2.50;;
30062;SDS011;16889;67.864;24.990;2023-04-26T04:17:09;9.52;;;3.60;;
30062;SDS011;16889;67.864;24.990;2023-04-26T04:21:56;8.18;;;2.20;;
30062;SDS011;16889;67.864;24.990;2023-04-26T04:26:41;7.25;;;2.38;;
30062;SDS011;16889;67.864;24.990;2023-04-26T04:31:27;3.65;;;2.05;;
30062;SDS011;16889;67.864;24.990;2023-04-26T04:36:16;8.23;;;2.38;;
30062;SDS011;16889;67.864;24.990;2023-04-26T04:41:02;7.30;;;2.80;;
30062;SDS011;16889;67.864;24.990;2023-04-26T04:45:48;4.60;;;2.30;;
30062;SDS011;16889;67.864;24.990;2023-04-26T04:50:34;4.85;;;2.10;;
30062;SDS011;16889;67.864;24.990;2023-04-26T04:55:21;5.30;;;1.98;;
30062;SDS011;16889;67.864;24.990;2023-04-26T05:00:07;5.63;;;2.13;;
30062;SDS011;16889;67.864;24.990;2023-04-26T05:05:02;3.95;;;2.08;;
30062;SDS011;16889;67.864;24.990;2023-04-26T05:09:49;4.40;;;2.10;;
30062;SDS011;16889;67.864;24.990;2023-04-26T05:14:35;6.50;;;2.10;;
30062;SDS011;16889;67.864;24.990;2023-04-26T05:19:21;4.60;;;2.00;;
30062;SDS011;16889;67.864;24.990;2023-04-26T05:24:07;3.58;;;1.92;;
30062;SDS011;16889;67.864;24.990;2023-04-26T05:28:52;2.95;;;1.95;;
30062;SDS011;16889;67.864;24.990;2023-04-26T05:33:38;3.55;;;1.85;;
30062;SDS011;16889;67.864;24.990;2023-04-26T05:38:25;4.35;;;1.83;;
30062;SDS011;16889;67.864;24.990;2023-04-26T05:43:11;2.60;;;1.55;;
30062;SDS011;16889;67.864;24.990;2023-04-26T05:47:57;3.05;;;1.63;;
30062;SDS011;16889;67.864;24.990;2023-04-26T05:52:43;2.85;;;1.60;;
30062;SDS011;16889;67.864;24.990;2023-04-26T05:57:29;4.38;;;1.70;;
30062;SDS011;16889;67.864;24.990;2023-04-26T06:02:15;1.92;;;1.63;;
30062;SDS011;16889;67.864;24.990;2023-04-26T06:07:01;3.20;;;1.63;;
30062;SDS011;16889;67.864;24.990;2023-04-26T06:11:47;2.97;;;1.75;;
30062;SDS011;16889;67.864;24.990;2023-04-26T06:16:33;2.67;;;1.67;;
30062;SDS011;16889;67.864;24.990;2023-04-26T06:21:19;2.08;;;1.50;;
30062;SDS011;16889;67.864;24.990;2023-04-26T06:26:05;3.28;;;1.80;;
30062;SDS011;16889;67.864;24.990;2023-04-26T06:30:52;3.33;;;1.60;;
30062;SDS011;16889;67.864;24.990;2023-04-26T06:35:39;2.97;;;1.35;;
30062;SDS011;16889;67.864;24.990;2023-04-26T06:40:25;2.97;;;1.30;;
30062;SDS011;16889;67.864;24.990;2023-04-26T06:45:11;5.45;;;1.60;;
30062;SDS011;16889;67.864;24.990;2023-04-26T06:50:02;4.20;;;1.70;;
30062;SDS011;16889;67.864;24.990;2023-04-26T06:54:48;4.35;;;1.70;;
30062;SDS011;16889;67.864;24.990;2023-04-26T06:59:34;1.98;;;1.40;;
30062;SDS011;16889;67.864;24.990;2023-04-26T07:04:20;3.47;;;1.60;;
30062;SDS011;16889;67.864;24.990;2023-04-26T07:09:06;5.47;;;1.70;;
30062;SDS011;16889;67.864;24.990;2023-04-26T07:13:52;2.45;;;1.67;;
30062;SDS011;16889;67.864;24.990;2023-04-26T07:18:40;2.95;;;1.60;;
30062;SDS011;16889;67.864;24.990;2023-04-26T07:23:27;2.85;;;1.60;;
30062;SDS011;16889;67.864;24.990;2023-04-26T07:28:13;3.53;;;2.00;;
30062;SDS011;16889;67.864;24.990;2023-04-26T07:32:59;4.65;;;1.90;;
30062;SDS011;16889;67.864;24.990;2023-04-26T07:37:49;6.40;;;2.35;;
30062;SDS011;16889;67.864;24.990;2023-04-26T07:42:35;5.28;;;2.00;;
30062;SDS011;16889;67.864;24.990;2023-04-26T07:47:21;4.28;;;2.20;;
30062;SDS011;16889;67.864;24.990;2023-04-26T07:52:07;6.32;;;2.30;;
30062;SDS011;16889;67.864;24.990;2023-04-26T07:56:54;4.85;;;2.20;;
30062;SDS011;16889;67.864;24.990;2023-04-26T08:01:41;2.95;;;1.80;;
30062;SDS011;16889;67.864;24.990;2023-04-26T08:06:27;5.50;;;2.30;;
30062;SDS011;16889;67.864;24.990;2023-04-26T08:11:13;6.97;;;2.03;;
30062;SDS011;16889;67.864;24.990;2023-04-26T08:15:59;3.72;;;2.00;;
30062;SDS011;16889;67.864;24.990;2023-04-26T08:20:45;7.72;;;2.00;;
30062;SDS011;16889;67.864;24.990;2023-04-26T08:25:31;2.85;;;1.88;;
30062;SDS011;16889;67.864;24.990;2023-04-26T08:30:18;5.30;;;2.20;;
30062;SDS011;16889;67.864;24.990;2023-04-26T08:35:05;4.07;;;2.20;;
30062;SDS011;16889;67.864;24.990;2023-04-26T08:39:51;3.35;;;2.22;;
30062;SDS011;16889;67.864;24.990;2023-04-26T08:44:37;3.28;;;2.05;;
30062;SDS011;16889;67.864;24.990;2023-04-26T08:54:18;2.92;;;2.08;;
30062;SDS011;16889;67.864;24.990;2023-04-26T08:59:05;3.77;;;1.97;;
30062;SDS011;16889;67.864;24.990;2023-04-26T09:03:51;4.07;;;2.35;;
30062;SDS011;16889;67.864;24.990;2023-04-26T09:08:39;6.03;;;2.60;;
30062;SDS011;16889;67.864;24.990;2023-04-26T09:13:28;4.97;;;2.20;;
30062;SDS011;16889;67.864;24.990;2023-04-26T09:18:15;4.40;;;2.30;;
30062;SDS011;16889;67.864;24.990;2023-04-26T09:23:03;4.07;;;2.10;;
30062;SDS011;16889;67.864;24.990;2023-04-26T09:27:53;4.28;;;1.73;;
30062;SDS011;16889;67.864;24.990;2023-04-26T09:37:29;5.00;;;2.35;;
30062;SDS011;16889;67.864;24.990;2023-04-26T09:42:15;5.13;;;1.90;;
30062;SDS011;16889;67.864;24.990;2023-04-26T09:47:03;3.65;;;1.73;;
30062;SDS011;16889;67.864;24.990;2023-04-26T09:52:03;4.70;;;2.08;;
30062;SDS011;16889;67.864;24.990;2023-04-26T09:56:59;6.40;;;1.70;;
30062;SDS011;16889;67.864;24.990;2023-04-26T10:01:48;4.82;;;2.10;;
30062;SDS011;16889;67.864;24.990;2023-04-26T10:06:34;6.82;;;1.70;;
30062;SDS011;16889;67.864;24.990;2023-04-26T10:11:20;6.30;;;2.15;;
30062;SDS011;16889;67.864;24.990;2023-04-26T10:16:10;1.85;;;1.45;;
30062;SDS011;16889;67.864;24.990;2023-04-26T10:20:59;2.90;;;1.83;;
30062;SDS011;16889;67.864;24.990;2023-04-26T10:26:05;3.30;;;1.75;;
30062;SDS011;16889;67.864;24.990;2023-04-26T10:30:55;2.47;;;1.70;;
30062;SDS011;16889;67.864;24.990;2023-04-26T10:35:59;3.47;;;2.08;;
30062;SDS011;16889;67.864;24.990;2023-04-26T10:40:48;3.67;;;1.85;;
30062;SDS011;16889;67.864;24.990;2023-04-26T10:45:34;4.57;;;2.08;;
30062;SDS011;16889;67.864;24.990;2023-04-26T10:50:21;4.65;;;1.88;;
30062;SDS011;16889;67.864;24.990;2023-04-26T10:55:09;3.75;;;1.63;;
30062;SDS011;16889;67.864;24.990;2023-04-26T11:05:03;4.38;;;1.80;;
30062;SDS011;16889;67.864;24.990;2023-04-26T11:09:49;2.35;;;1.50;;
30062;SDS011;16889;67.864;24.990;2023-04-26T11:14:37;3.13;;;1.87;;
30062;SDS011;16889;67.864;24.990;2023-04-26T11:19:25;4.35;;;1.60;;
30062;SDS011;16889;67.864;24.990;2023-04-26T11:24:13;2.67;;;1.30;;
30062;SDS011;16889;67.864;24.990;2023-04-26T11:29:00;3.08;;;1.60;;
30062;SDS011;16889;67.864;24.990;2023-04-26T11:33:46;3.00;;;1.60;;
30062;SDS011;16889;67.864;24.990;2023-04-26T11:38:32;3.22;;;1.90;;
30062;SDS011;16889;67.864;24.990;2023-04-26T11:43:18;5.20;;;1.73;;
30062;SDS011;16889;67.864;24.990;2023-04-26T11:48:05;2.50;;;1.92;;
30062;SDS011;16889;67.864;24.990;2023-04-26T11:52:54;2.78;;;2.00;;
30062;SDS011;16889;67.864;24.990;2023-04-26T11:57:41;4.50;;;2.03;;
30062;SDS011;16889;67.864;24.990;2023-04-26T12:02:28;4.57;;;1.95;;
30062;SDS011;16889;67.864;24.990;2023-04-26T12:07:17;4.20;;;2.30;;
30062;SDS011;16889;67.864;24.990;2023-04-26T12:12:03;3.83;;;2.22;;
30062;SDS011;16889;67.864;24.990;2023-04-26T12:16:53;3.53;;;2.10;;
30062;SDS011;16889;67.864;24.990;2023-04-26T12:21:39;3.70;;;2.30;;
30062;SDS011;16889;67.864;24.990;2023-04-26T12:31:46;4.93;;;2.80;;
30062;SDS011;16889;67.864;24.990;2023-04-26T12:36:33;5.00;;;2.63;;
30062;SDS011;16889;67.864;24.990;2023-04-26T12:41:19;4.40;;;2.90;;
30062;SDS011;16889;67.864;24.990;2023-04-26T12:46:05;4.45;;;2.72;;
30062;SDS011;16889;67.864;24.990;2023-04-26T12:50:51;6.15;;;3.00;;
30062;SDS011;16889;67.864;24.990;2023-04-26T12:55:37;5.53;;;2.90;;
30062;SDS011;16889;67.864;24.990;2023-04-26T13:00:23;4.05;;;2.83;;
30062;SDS011;16889;67.864;24.990;2023-04-26T13:05:09;6.65;;;3.47;;
30062;SDS011;16889;67.864;24.990;2023-04-26T13:09:57;11.10;;;3.40;;
30062;SDS011;16889;67.864;24.990;2023-04-26T13:14:46;4.63;;;2.50;;
30062;SDS011;16889;67.864;24.990;2023-04-26T13:19:32;4.70;;;2.80;;
30062;SDS011;16889;67.864;24.990;2023-04-26T13:24:19;7.50;;;3.00;;
30062;SDS011;16889;67.864;24.990;2023-04-26T13:29:05;4.38;;;2.70;;
30062;SDS011;16889;67.864;24.990;2023-04-26T13:33:51;4.80;;;2.65;;
30062;SDS011;16889;67.864;24.990;2023-04-26T13:38:37;5.18;;;2.80;;
30062;SDS011;16889;67.864;24.990;2023-04-26T13:43:25;8.15;;;2.80;;
30062;SDS011;16889;67.864;24.990;2023-04-26T13:48:11;7.20;;;2.63;;
30062;SDS011;16889;67.864;24.990;2023-04-26T13:52:58;10.18;;;3.15;;
30062;SDS011;16889;67.864;24.990;2023-04-26T13:57:44;5.50;;;2.93;;
30062;SDS011;16889;67.864;24.990;2023-04-26T14:02:30;6.30;;;3.08;;
30062;SDS011;16889;67.864;24.990;2023-04-26T14:07:16;7.03;;;2.97;;
30062;SDS011;16889;67.864;24.990;2023-04-26T14:12:02;6.13;;;3.10;;
30062;SDS011;16889;67.864;24.990;2023-04-26T14:16:48;5.97;;;3.08;;
30062;SDS011;16889;67.864;24.990;2023-04-26T14:21:34;5.63;;;2.78;;
30062;SDS011;16889;67.864;24.990;2023-04-26T14:26:20;6.90;;;2.95;;
30062;SDS011;16889;67.864;24.990;2023-04-26T14:31:07;5.85;;;3.05;;
30062;SDS011;16889;67.864;24.990;2023-04-26T14:35:55;7.07;;;2.97;;
30062;SDS011;16889;67.864;24.990;2023-04-26T14:40:41;9.05;;;2.97;;
30062;SDS011;16889;67.864;24.990;2023-04-26T14:45:29;7.43;;;2.97;;
30062;SDS011;16889;67.864;24.990;2023-04-26T14:50:18;4.80;;;2.42;;
30062;SDS011;16889;67.864;24.990;2023-04-26T14:55:04;6.00;;;2.50;;
30062;SDS011;16889;67.864;24.990;2023-04-26T14:59:56;4.43;;;2.22;;
30062;SDS011;16889;67.864;24.990;2023-04-26T15:04:48;8.55;;;2.70;;
30062;SDS011;16889;67.864;24.990;2023-04-26T15:09:34;6.10;;;2.70;;
30062;SDS011;16889;67.864;24.990;2023-04-26T15:14:21;4.00;;;2.50;;
30062;SDS011;16889;67.864;24.990;2023-04-26T15:19:07;5.15;;;2.63;;
30062;SDS011;16889;67.864;24.990;2023-04-26T15:23:54;4.55;;;2.65;;
30062;SDS011;16889;67.864;24.990;2023-04-26T15:28:43;6.22;;;2.70;;
30062;SDS011;16889;67.864;24.990;2023-04-26T15:33:29;5.47;;;2.50;;
30062;SDS011;16889;67.864;24.990;2023-04-26T15:38:18;3.70;;;2.10;;
30062;SDS011;16889;67.864;24.990;2023-04-26T15:43:04;6.13;;;2.25;;
30062;SDS011;16889;67.864;24.990;2023-04-26T15:47:50;5.15;;;2.25;;
30062;SDS011;16889;67.864;24.990;2023-04-26T15:52:36;6.75;;;2.38;;
30062;SDS011;16889;67.864;24.990;2023-04-26T15:57:23;7.50;;;2.40;;
30062;SDS011;16889;67.864;24.990;2023-04-26T16:02:09;5.68;;;2.72;;
30062;SDS011;16889;67.864;24.990;2023-04-26T16:06:55;5.13;;;2.47;;
30062;SDS011;16889;67.864;24.990;2023-04-26T16:11:41;5.78;;;2.33;;
30062;SDS011;16889;67.864;24.990;2023-04-26T16:16:27;8.40;;;2.47;;
30062;SDS011;16889;67.864;24.990;2023-04-26T16:21:13;5.63;;;2.10;;
30062;SDS011;16889;67.864;24.990;2023-04-26T16:26:00;4.78;;;2.30;;
30062;SDS011;16889;67.864;24.990;2023-04-26T16:30:46;5.35;;;2.60;;
30062;SDS011;16889;67.864;24.990;2023-04-26T16:35:33;3.83;;;2.40;;
30062;SDS011;16889;67.864;24.990;2023-04-26T16:40:19;8.52;;;2.92;;
30062;SDS011;16889;67.864;24.990;2023-04-26T16:45:10;4.35;;;2.20;;
30062;SDS011;16889;67.864;24.990;2023-04-26T16:49:56;5.18;;;2.60;;
30062;SDS011;16889;67.864;24.990;2023-04-26T16:54:42;4.40;;;2.33;;
30062;SDS011;16889;67.864;24.990;2023-04-26T16:59:28;5.50;;;2.50;;
30062;SDS011;16889;67.864;24.990;2023-04-26T17:04:14;5.90;;;2.53;;
30062;SDS011;16889;67.864;24.990;2023-04-26T17:09:00;6.68;;;2.35;;
30062;SDS011;16889;67.864;24.990;2023-04-26T17:13:46;5.32;;;2.40;;
30062;SDS011;16889;67.864;24.990;2023-04-26T17:18:31;9.63;;;2.28;;
30062;SDS011;16889;67.864;24.990;2023-04-26T17:23:17;5.50;;;2.35;;
30062;SDS011;16889;67.864;24.990;2023-04-26T17:28:03;3.28;;;2.00;;
30062;SDS011;16889;67.864;24.990;2023-04-26T17:32:50;3.95;;;2.05;;
30062;SDS011;16889;67.864;24.990;2023-04-26T17:37:35;3.55;;;1.90;;
30062;SDS011;16889;67.864;24.990;2023-04-26T17:42:21;4.45;;;2.20;;
30062;SDS011;16889;67.864;24.990;2023-04-26T17:47:07;3.42;;;2.00;;
30062;SDS011;16889;67.864;24.990;2023-04-26T17:51:53;2.90;;;2.00;;
30062;SDS011;16889;67.864;24.990;2023-04-26T17:56:39;6.80;;;2.15;;
30062;SDS011;16889;67.864;24.990;2023-04-26T18:01:25;5.13;;;2.13;;
30062;SDS011;16889;67.864;24.990;2023-04-26T18:06:11;4.88;;;2.20;;
30062;SDS011;16889;67.864;24.990;2023-04-26T18:10:57;4.35;;;1.98;;
30062;SDS011;16889;67.864;24.990;2023-04-26T18:15:43;3.92;;;1.88;;
30062;SDS011;16889;67.864;24.990;2023-04-26T18:20:33;3.92;;;2.10;;
30062;SDS011;16889;67.864;24.990;2023-04-26T18:25:20;5.82;;;2.10;;
30062;SDS011;16889;67.864;24.990;2023-04-26T18:30:07;3.28;;;2.08;;
30062;SDS011;16889;67.864;24.990;2023-04-26T18:34:53;11.02;;;2.33;;
30062;SDS011;16889;67.864;24.990;2023-04-26T18:39:39;4.13;;;1.92;;
30062;SDS011;16889;67.864;24.990;2023-04-26T18:44:25;4.47;;;2.15;;
30062;SDS011;16889;67.864;24.990;2023-04-26T18:49:11;9.60;;;2.33;;
30062;SDS011;16889;67.864;24.990;2023-04-26T18:53:57;6.05;;;2.25;;
30062;SDS011;16889;67.864;24.990;2023-04-26T18:58:43;5.15;;;1.90;;
30062;SDS011;16889;67.864;24.990;2023-04-26T19:03:29;4.68;;;2.10;;
30062;SDS011;16889;67.864;24.990;2023-04-26T19:08:15;3.38;;;2.10;;
30062;SDS011;16889;67.864;24.990;2023-04-26T19:13:02;4.43;;;2.03;;
30062;SDS011;16889;67.864;24.990;2023-04-26T19:17:48;4.18;;;1.85;;
30062;SDS011;16889;67.864;24.990;2023-04-26T19:22:34;2.80;;;1.73;;
30062;SDS011;16889;67.864;24.990;2023-04-26T19:27:20;3.05;;;1.70;;
30062;SDS011;16889;67.864;24.990;2023-04-26T19:32:06;2.63;;;1.60;;
30062;SDS011;16889;67.864;24.990;2023-04-26T19:36:52;8.43;;;2.08;;
30062;SDS011;16889;67.864;24.990;2023-04-26T19:41:38;2.80;;;1.83;;
30062;SDS011;16889;67.864;24.990;2023-04-26T19:46:24;3.38;;;1.73;;
30062;SDS011;16889;67.864;24.990;2023-04-26T19:51:14;2.13;;;1.63;;
30062;SDS011;16889;67.864;24.990;2023-04-26T19:56:01;3.10;;;1.50;;
30062;SDS011;16889;67.864;24.990;2023-04-26T20:00:47;3.47;;;2.10;;
30062;SDS011;16889;67.864;24.990;2023-04-26T20:05:33;2.95;;;1.83;;
30062;SDS011;16889;67.864;24.990;2023-04-26T20:10:19;5.07;;;2.10;;
30062;SDS011;16889;67.864;24.990;2023-04-26T20:15:08;4.85;;;1.80;;
30062;SDS011;16889;67.864;24.990;2023-04-26T20:19:56;2.50;;;1.70;;
30062;SDS011;16889;67.864;24.990;2023-04-26T20:24:42;3.97;;;1.70;;
30062;SDS011;16889;67.864;24.990;2023-04-26T20:29:28;4.03;;;1.70;;
30062;SDS011;16889;67.864;24.990;2023-04-26T20:34:14;3.00;;;1.50;;
30062;SDS011;16889;67.864;24.990;2023-04-26T20:39:01;2.67;;;1.75;;
30062;SDS011;16889;67.864;24.990;2023-04-26T20:43:47;2.63;;;1.80;;
30062;SDS011;16889;67.864;24.990;2023-04-26T20:48:33;3.90;;;2.05;;
30062;SDS011;16889;67.864;24.990;2023-04-26T20:53:19;8.45;;;1.92;;
30062;SDS011;16889;67.864;24.990;2023-04-26T20:58:05;5.38;;;1.70;;
30062;SDS011;16889;67.864;24.990;2023-04-26T21:02:51;5.10;;;1.92;;
30062;SDS011;16889;67.864;24.990;2023-04-26T21:07:37;3.20;;;1.92;;
30062;SDS011;16889;67.864;24.990;2023-04-26T21:12:23;3.80;;;2.00;;
30062;SDS011;16889;67.864;24.990;2023-04-26T21:17:09;5.50;;;1.77;;
30062;SDS011;16889;67.864;24.990;2023-04-26T21:21:55;4.90;;;2.20;;
30062;SDS011;16889;67.864;24.990;2023-04-26T21:26:41;4.97;;;1.88;;
30062;SDS011;16889;67.864;24.990;2023-04-26T21:31:27;5.15;;;2.17;;
30062;SDS011;16889;67.864;24.990;2023-04-26T21:36:13;2.85;;;1.75;;
30062;SDS011;16889;67.864;24.990;2023-04-26T21:40:59;1.98;;;1.67;;
30062;SDS011;16889;67.864;24.990;2023-04-26T21:45:45;3.03;;;1.90;;
30062;SDS011;16889;67.864;24.990;2023-04-26T21:50:31;4.18;;;2.20;;
30062;SDS011;16889;67.864;24.990;2023-04-26T21:55:17;3.88;;;2.08;;
30062;SDS011;16889;67.864;24.990;2023-04-26T22:00:03;3.65;;;2.17;;
30062;SDS011;16889;67.864;24.990;2023-04-26T22:04:55;6.22;;;2.10;;
30062;SDS011;16889;67.864;24.990;2023-04-26T22:09:41;2.95;;;1.85;;
30062;SDS011;16889;67.864;24.990;2023-04-26T22:14:27;5.43;;;2.10;;
30062;SDS011;16889;67.864;24.990;2023-04-26T22:19:13;5.18;;;2.17;;
30062;SDS011;16889;67.864;24.990;2023-04-26T22:23:59;9.23;;;2.35;;
30062;SDS011;16889;67.864;24.990;2023-04-26T22:28:45;3.55;;;2.05;;
30062;SDS011;16889;67.864;24.990;2023-04-26T22:33:31;5.25;;;2.15;;
30062;SDS011;16889;67.864;24.990;2023-04-26T22:38:17;5.10;;;2.22;;
30062;SDS011;16889;67.864;24.990;2023-04-26T22:43:03;5.60;;;2.30;;
30062;SDS011;16889;67.864;24.990;2023-04-26T22:47:49;2.63;;;1.90;;
30062;SDS011;16889;67.864;24.990;2023-04-26T22:52:35;4.68;;;2.10;;
30062;SDS011;16889;67.864;24.990;2023-04-26T22:57:22;4.60;;;2.73;;
30062;SDS011;16889;67.864;24.990;2023-04-26T23:02:08;3.53;;;1.90;;
30062;SDS011;16889;67.864;24.990;2023-04-26T23:06:54;3.55;;;2.00;;
30062;SDS011;16889;67.864;24.990;2023-04-26T23:11:40;4.68;;;2.63;;
30062;SDS011;16889;67.864;24.990;2023-04-26T23:16:26;7.03;;;2.22;;
30062;SDS011;16889;67.864;24.990;2023-04-26T23:21:12;7.30;;;2.50;;
30062;SDS011;16889;67.864;24.990;2023-04-26T23:25:58;6.10;;;2.67;;
30062;SDS011;16889;67.864;24.990;2023-04-26T23:30:44;4.25;;;2.58;;
30062;SDS011;16889;67.864;24.990;2023-04-26T23:35:30;4.85;;;2.20;;
30062;SDS011;16889;67.864;24.990;2023-04-26T23:40:16;5.55;;;2.30;;
30062;SDS011;16889;67.864;24.990;2023-04-26T23:45:02;4.75;;;2.50;;
30062;SDS011;16889;67.864;24.990;2023-04-26T23:49:48;6.10;;;2.35;;
30062;SDS011;16889;67.864;24.990;2023-04-26T23:54:34;5.70;;;2.50;;
30062;SDS011;16889;67.864;24.990;2023-04-26T23:59:20;3.95;;;2.47;;
